createdAt,value
2019-05-11T00:00:49.189Z,12.85
2019-05-11T00:01:57.296Z,12.76
2019-05-11T00:03:05.973Z,12.72
2019-05-11T00:04:13.873Z,12.64
2019-05-11T00:05:22.484Z,12.58
2019-05-11T00:06:30.511Z,12.63
2019-05-11T00:07:38.994Z,12.65
2019-05-11T00:08:46.698Z,12.70
2019-05-11T00:09:58.069Z,12.64
2019-05-11T00:11:05.000Z,12.67
2019-05-11T00:12:13.381Z,12.64
2019-05-11T00:13:21.219Z,12.70
2019-05-11T00:14:29.370Z,12.61
2019-05-11T00:15:37.292Z,12.60
2019-05-11T00:16:45.770Z,12.50
2019-05-11T00:17:53.645Z,12.47
2019-05-11T00:19:02.015Z,12.34
2019-05-11T00:20:10.924Z,12.32
2019-05-11T00:21:19.378Z,12.26
2019-05-11T00:22:27.573Z,12.19
2019-05-11T00:23:36.018Z,12.12
2019-05-11T00:24:43.807Z,12.12
2019-05-11T00:25:52.229Z,12.07
2019-05-11T00:27:00.389Z,12.05
2019-05-11T00:28:08.857Z,12.06
2019-05-11T00:29:17.013Z,12.05
2019-05-11T00:30:25.479Z,12.06
2019-05-11T00:31:33.471Z,12.02
2019-05-11T00:32:41.947Z,11.96
2019-05-11T00:33:50.053Z,11.89
2019-05-11T00:34:58.526Z,11.89
2019-05-11T00:36:06.684Z,11.85
2019-05-11T00:37:15.432Z,11.94
2019-05-11T00:38:23.541Z,12.04
2019-05-11T00:39:32.040Z,12.10
2019-05-11T00:40:40.426Z,12.21
2019-05-11T00:41:48.801Z,12.29
2019-05-11T00:42:57.017Z,12.20
2019-05-11T00:44:05.648Z,12.21
2019-05-11T00:45:14.079Z,12.27
2019-05-11T00:46:22.317Z,12.18
2019-05-11T00:47:30.267Z,12.08
2019-05-11T00:48:38.487Z,12.02
2019-05-11T00:49:46.341Z,12.07
2019-05-11T00:50:54.655Z,11.92
2019-05-11T00:52:02.711Z,11.97
2019-05-11T00:53:11.019Z,11.89
2019-05-11T00:54:19.066Z,11.85
2019-05-11T00:55:27.798Z,11.81
2019-05-11T00:56:35.988Z,11.86
2019-05-11T00:57:44.414Z,11.74
2019-05-11T00:58:52.412Z,11.81
2019-05-11T01:00:00.970Z,11.67
2019-05-11T01:01:08.773Z,11.52
2019-05-11T01:02:17.393Z,11.51
2019-05-11T01:03:25.231Z,11.50
2019-05-11T01:04:33.637Z,11.41
2019-05-11T01:05:41.587Z,11.34
2019-05-11T01:06:50.123Z,11.37
2019-05-11T01:07:58.014Z,11.43
2019-05-11T01:09:08.310Z,11.38
2019-05-11T01:10:25.491Z,11.37
2019-05-11T01:11:26.575Z,11.28
2019-05-11T01:12:34.363Z,11.26
2019-05-11T01:13:42.955Z,11.30
2019-05-11T01:14:51.247Z,11.26
2019-05-11T01:15:59.597Z,11.31
2019-05-11T01:17:07.738Z,11.21
2019-05-11T01:18:16.284Z,11.16
2019-05-11T01:19:24.008Z,11.25
2019-05-11T01:20:32.440Z,11.19
2019-05-11T01:21:40.472Z,11.25
2019-05-11T01:22:48.792Z,11.19
2019-05-11T01:23:57.733Z,11.23
2019-05-11T01:25:07.270Z,11.17
2019-05-11T01:26:15.402Z,11.22
2019-05-11T01:27:23.572Z,11.30
2019-05-11T01:28:31.619Z,11.41
2019-05-11T01:29:39.919Z,11.37
2019-05-11T01:30:47.872Z,11.26
2019-05-11T01:31:56.354Z,11.27
2019-05-11T01:33:04.268Z,11.21
2019-05-11T01:34:12.614Z,11.20
2019-05-11T01:35:20.440Z,11.13
2019-05-11T01:36:28.753Z,11.12
2019-05-11T01:37:37.107Z,11.12
2019-05-11T01:38:45.724Z,11.13
2019-05-11T01:39:53.734Z,11.16
2019-05-11T01:41:02.325Z,11.14
2019-05-11T01:42:10.316Z,11.20
2019-05-11T01:43:18.680Z,11.12
2019-05-11T01:44:29.305Z,11.18
2019-05-11T01:45:38.192Z,11.12
2019-05-11T01:46:46.356Z,11.24
2019-05-11T01:47:54.970Z,11.32
2019-05-11T01:49:03.344Z,11.33
2019-05-11T01:50:12.176Z,11.35
2019-05-11T01:51:20.558Z,11.34
2019-05-11T01:52:28.948Z,11.33
2019-05-11T01:53:36.856Z,11.42
2019-05-11T01:54:45.405Z,11.35
2019-05-11T01:55:53.232Z,11.35
2019-05-11T01:57:01.553Z,11.36
2019-05-11T01:58:09.650Z,11.31
2019-05-11T01:59:18.052Z,11.25
2019-05-11T02:00:26.166Z,11.26
2019-05-11T02:01:34.269Z,11.18
2019-05-11T02:02:42.356Z,11.04
2019-05-11T02:03:50.711Z,11.02
2019-05-11T02:05:16.435Z,10.97
2019-05-11T02:06:24.452Z,11.01
2019-05-11T02:07:32.650Z,11.00
2019-05-11T02:08:40.914Z,10.99
2019-05-11T02:09:49.165Z,11.00
2019-05-11T02:10:57.238Z,10.97
2019-05-11T02:12:05.718Z,10.92
2019-05-11T02:13:13.680Z,10.91
2019-05-11T02:14:22.191Z,10.85
2019-05-11T02:15:30.225Z,10.90
2019-05-11T02:16:38.853Z,10.88
2019-05-11T02:17:46.969Z,10.96
2019-05-11T02:18:55.345Z,11.02
2019-05-11T02:20:03.655Z,11.05
2019-05-11T02:21:12.418Z,11.05
2019-05-11T02:22:20.466Z,11.03
2019-05-11T02:23:29.095Z,11.08
2019-05-11T02:24:37.040Z,11.06
2019-05-11T02:25:45.154Z,11.06
2019-05-11T02:26:53.461Z,11.12
2019-05-11T02:28:01.724Z,11.17
2019-05-11T02:29:09.820Z,11.16
2019-05-11T02:30:19.686Z,11.20
2019-05-11T02:31:29.023Z,11.21
2019-05-11T02:32:37.487Z,11.18
2019-05-11T02:33:45.380Z,11.21
2019-05-11T02:34:53.566Z,11.24
2019-05-11T02:36:01.562Z,11.26
2019-05-11T02:37:10.254Z,11.17
2019-05-11T02:38:18.114Z,11.20
2019-05-11T02:39:26.444Z,11.19
2019-05-11T02:40:34.709Z,11.23
2019-05-11T02:41:43.152Z,11.20
2019-05-11T02:42:51.216Z,11.03
2019-05-11T02:43:59.536Z,10.99
2019-05-11T02:45:08.804Z,11.04
2019-05-11T02:46:18.086Z,10.99
2019-05-11T02:47:26.062Z,10.98
2019-05-11T02:48:34.461Z,10.98
2019-05-11T02:49:42.591Z,11.08
2019-05-11T02:50:53.312Z,11.07
2019-05-11T02:52:02.029Z,11.03
2019-05-11T02:53:11.358Z,11.04
2019-05-11T02:54:20.216Z,11.03
2019-05-11T02:55:29.757Z,11.11
2019-05-11T02:56:37.499Z,11.08
2019-05-11T02:57:45.884Z,11.07
2019-05-11T02:58:53.776Z,11.05
2019-05-11T03:00:02.489Z,11.12
2019-05-11T03:01:11.032Z,11.05
2019-05-11T03:02:19.603Z,11.08
2019-05-11T03:03:27.493Z,11.00
2019-05-11T03:04:35.814Z,11.09
2019-05-11T03:05:44.290Z,11.08
2019-05-11T03:06:52.809Z,11.05
2019-05-11T03:08:00.821Z,11.10
2019-05-11T03:09:09.220Z,11.14
2019-05-11T03:10:17.514Z,11.22
2019-05-11T03:11:26.288Z,11.25
2019-05-11T03:12:34.247Z,11.38
2019-05-11T03:13:42.529Z,11.37
2019-05-11T03:14:50.471Z,11.50
2019-05-11T03:15:58.711Z,11.59
2019-05-11T03:17:10.990Z,11.69
2019-05-11T03:18:19.525Z,11.69
2019-05-11T03:19:27.714Z,11.73
2019-05-11T03:20:36.037Z,11.77
2019-05-11T03:21:43.983Z,11.82
2019-05-11T03:22:52.484Z,11.89
2019-05-11T03:24:00.612Z,11.89
2019-05-11T03:25:08.838Z,11.92
2019-05-11T03:26:16.866Z,11.84
2019-05-11T03:27:25.174Z,11.91
2019-05-11T03:28:33.311Z,11.74
2019-05-11T03:29:41.624Z,11.68
2019-05-11T03:30:49.855Z,11.61
2019-05-11T03:31:58.229Z,11.58
2019-05-11T03:33:06.181Z,11.58
2019-05-11T03:34:14.568Z,11.53
2019-05-11T03:35:22.712Z,11.57
2019-05-11T03:36:31.277Z,11.58
2019-05-11T03:37:39.308Z,11.52
2019-05-11T03:38:47.803Z,11.53
2019-05-11T03:39:55.774Z,11.52
2019-05-11T03:41:04.477Z,11.45
2019-05-11T03:42:15.007Z,11.46
2019-05-11T03:43:22.605Z,11.59
2019-05-11T03:44:30.759Z,11.60
2019-05-11T03:45:39.169Z,11.58
2019-05-11T03:46:47.301Z,11.61
2019-05-11T03:47:55.620Z,11.62
2019-05-11T03:49:03.416Z,11.52
2019-05-11T03:50:12.171Z,11.44
2019-05-11T03:51:19.980Z,11.43
2019-05-11T03:52:28.261Z,11.40
2019-05-11T03:53:36.272Z,11.39
2019-05-11T03:54:44.552Z,11.38
2019-05-11T03:55:52.676Z,11.36
2019-05-11T03:57:00.919Z,11.44
2019-05-11T03:58:09.136Z,11.36
2019-05-11T03:59:18.324Z,11.43
2019-05-11T04:00:26.596Z,11.40
2019-05-11T04:01:34.977Z,11.42
2019-05-11T04:02:42.877Z,11.43
2019-05-11T04:03:51.484Z,11.32
2019-05-11T04:04:59.457Z,11.31
2019-05-11T04:06:07.881Z,11.27
2019-05-11T04:07:16.303Z,11.26
2019-05-11T04:08:24.820Z,11.20
2019-05-11T04:09:32.988Z,11.22
2019-05-11T04:10:41.187Z,11.23
2019-05-11T04:11:49.328Z,11.28
2019-05-11T04:12:57.805Z,11.21
2019-05-11T04:14:05.875Z,11.22
2019-05-11T04:15:15.252Z,11.16
2019-05-11T04:16:23.475Z,11.18
2019-05-11T04:17:31.802Z,11.31
2019-05-11T04:18:40.151Z,11.42
2019-05-11T04:19:48.559Z,11.26
2019-05-11T04:20:56.653Z,11.23
2019-05-11T04:22:05.267Z,11.22
2019-05-11T04:23:13.559Z,11.22
2019-05-11T04:24:22.069Z,11.16
2019-05-11T04:25:30.164Z,11.19
2019-05-11T04:26:38.534Z,11.26
2019-05-11T04:27:48.420Z,11.30
2019-05-11T04:28:56.694Z,11.42
2019-05-11T04:30:09.506Z,11.43
2019-05-11T04:31:18.835Z,11.50
2019-05-11T04:32:26.679Z,11.57
2019-05-11T04:33:34.987Z,11.62
2019-05-11T04:34:45.000Z,11.68
2019-05-11T04:35:53.248Z,11.69
2019-05-11T04:37:01.068Z,11.63
2019-05-11T04:38:09.595Z,11.72
2019-05-11T04:39:17.750Z,11.60
2019-05-11T04:40:26.082Z,11.55
2019-05-11T04:41:34.402Z,11.42
2019-05-11T04:42:54.011Z,11.36
2019-05-11T04:43:52.625Z,11.31
2019-05-11T04:45:00.995Z,11.29
2019-05-11T04:46:09.584Z,11.28
2019-05-11T04:47:18.013Z,11.29
2019-05-11T04:48:26.046Z,11.30
2019-05-11T04:49:34.226Z,11.34
2019-05-11T04:50:42.228Z,11.22
2019-05-11T04:51:50.540Z,11.16
2019-05-11T04:52:58.595Z,11.25
2019-05-11T04:54:07.001Z,11.23
2019-05-11T04:55:15.314Z,11.28
2019-05-11T04:56:23.640Z,11.38
2019-05-11T04:57:31.483Z,11.49
2019-05-11T04:58:39.910Z,11.54
2019-05-11T04:59:47.881Z,11.55
2019-05-11T05:00:56.186Z,11.51
2019-05-11T05:02:04.069Z,11.52
2019-05-11T05:03:12.779Z,11.59
2019-05-11T05:04:20.795Z,11.64
2019-05-11T05:05:29.186Z,11.77
2019-05-11T05:06:38.941Z,11.81
2019-05-11T05:07:49.001Z,11.81
2019-05-11T05:08:58.087Z,11.85
2019-05-11T05:10:07.665Z,11.97
2019-05-11T05:11:15.861Z,12.01
2019-05-11T05:12:24.201Z,12.07
2019-05-11T05:13:32.210Z,12.13
2019-05-11T05:14:41.142Z,12.13
2019-05-11T05:15:49.922Z,12.07
2019-05-11T05:16:58.263Z,12.14
2019-05-11T05:18:06.229Z,12.24
2019-05-11T05:19:15.047Z,12.20
2019-05-11T05:20:23.098Z,12.05
2019-05-11T05:21:31.442Z,12.07
2019-05-11T05:22:39.477Z,12.24
2019-05-11T05:23:47.966Z,12.15
2019-05-11T05:24:56.148Z,12.19
2019-05-11T05:26:04.735Z,12.22
2019-05-11T05:27:12.936Z,12.29
2019-05-11T05:28:21.445Z,12.38
2019-05-11T05:29:29.729Z,12.38
2019-05-11T05:30:38.340Z,12.47
2019-05-11T05:31:46.381Z,12.61
2019-05-11T05:32:55.418Z,12.55
2019-05-11T05:34:03.772Z,12.65
2019-05-11T05:35:12.326Z,12.75
2019-05-11T05:36:20.669Z,12.81
2019-05-11T05:37:29.237Z,12.85
2019-05-11T05:38:37.276Z,12.82
2019-05-11T05:39:46.148Z,12.82
2019-05-11T05:40:54.548Z,12.73
2019-05-11T05:42:03.070Z,12.72
2019-05-11T05:43:25.577Z,12.91
2019-05-11T05:44:21.297Z,12.96
2019-05-11T05:45:29.597Z,12.92
2019-05-11T05:46:38.307Z,13.01
2019-05-11T05:47:46.215Z,12.93
2019-05-11T05:48:55.046Z,12.89
2019-05-11T05:50:03.498Z,12.85
2019-05-11T05:51:11.920Z,12.87
2019-05-11T05:52:20.742Z,12.82
2019-05-11T05:53:29.237Z,12.85
2019-05-11T05:54:37.252Z,12.74
2019-05-11T05:55:45.761Z,12.78
2019-05-11T05:56:54.088Z,12.82
2019-05-11T05:58:02.432Z,12.82
2019-05-11T05:59:10.409Z,12.86
2019-05-11T06:00:20.218Z,12.94
2019-05-11T06:01:28.487Z,12.95
2019-05-11T06:02:36.878Z,13.00
2019-05-11T06:03:45.085Z,13.04
2019-05-11T06:04:53.698Z,13.21
2019-05-11T06:06:01.671Z,13.27
2019-05-11T06:07:10.500Z,13.35
2019-05-11T06:08:19.027Z,13.46
2019-05-11T06:09:27.392Z,13.56
2019-05-11T06:10:35.643Z,13.47
2019-05-11T06:11:43.986Z,13.42
2019-05-11T06:12:52.131Z,13.55
2019-05-11T06:14:00.716Z,13.70
2019-05-11T06:15:09.962Z,13.71
2019-05-11T06:16:18.315Z,13.64
2019-05-11T06:17:26.743Z,13.67
2019-05-11T06:18:35.378Z,13.69
2019-05-11T06:19:43.448Z,13.74
2019-05-11T06:20:52.047Z,13.73
2019-05-11T06:22:00.227Z,13.80
2019-05-11T06:23:08.804Z,13.73
2019-05-11T06:24:16.855Z,13.86
2019-05-11T06:25:25.633Z,13.97
2019-05-11T06:26:33.598Z,14.02
2019-05-11T06:27:41.989Z,13.95
2019-05-11T06:28:50.298Z,13.94
2019-05-11T06:29:58.666Z,13.86
2019-05-11T06:31:06.952Z,13.97
2019-05-11T06:32:15.443Z,13.98
2019-05-11T06:33:23.513Z,14.05
2019-05-11T06:34:32.006Z,14.10
2019-05-11T06:35:39.976Z,14.11
2019-05-11T06:36:48.423Z,14.07
2019-05-11T06:37:56.724Z,14.19
2019-05-11T06:39:07.851Z,14.27
2019-05-11T06:40:15.963Z,14.08
2019-05-11T06:41:24.455Z,14.19
2019-05-11T06:42:32.374Z,14.34
2019-05-11T06:43:40.872Z,14.28
2019-05-11T06:44:48.824Z,14.20
2019-05-11T06:45:57.288Z,14.17
2019-05-11T06:47:05.566Z,14.27
2019-05-11T06:48:14.073Z,14.41
2019-05-11T06:49:22.286Z,14.36
2019-05-11T06:50:30.680Z,14.39
2019-05-11T06:51:40.566Z,14.41
2019-05-11T06:52:49.681Z,14.37
2019-05-11T06:53:57.648Z,14.22
2019-05-11T06:55:07.021Z,14.41
2019-05-11T06:56:14.955Z,14.47
2019-05-11T06:57:23.645Z,14.52
2019-05-11T06:58:31.558Z,14.72
2019-05-11T06:59:39.964Z,14.84
2019-05-11T07:00:48.165Z,14.93
2019-05-11T07:01:56.707Z,14.91
2019-05-11T07:03:04.817Z,14.82
2019-05-11T07:04:13.293Z,14.89
2019-05-11T07:05:21.503Z,14.77
2019-05-11T07:06:30.660Z,14.80
2019-05-11T07:07:47.641Z,14.84
2019-05-11T07:08:49.140Z,14.78
2019-05-11T07:09:57.504Z,14.84
2019-05-11T07:11:06.220Z,14.94
2019-05-11T07:12:14.420Z,15.04
2019-05-11T07:13:23.125Z,15.05
2019-05-11T07:14:31.257Z,15.17
2019-05-11T07:15:39.823Z,15.26
2019-05-11T07:16:47.946Z,15.24
2019-05-11T07:17:56.436Z,15.23
2019-05-11T07:19:04.667Z,15.36
2019-05-11T07:20:13.486Z,15.44
2019-05-11T07:21:21.563Z,15.43
2019-05-11T07:22:30.182Z,15.34
2019-05-11T07:23:38.100Z,15.39
2019-05-11T07:24:46.946Z,15.34
2019-05-11T07:25:55.202Z,15.40
2019-05-11T07:27:04.175Z,15.47
2019-05-11T07:28:12.198Z,15.47
2019-05-11T07:29:20.607Z,15.52
2019-05-11T07:30:28.929Z,15.46
2019-05-11T07:31:37.236Z,15.41
2019-05-11T07:32:47.920Z,15.42
2019-05-11T07:33:55.772Z,15.59
2019-05-11T07:35:04.752Z,15.74
2019-05-11T07:36:13.182Z,15.80
2019-05-11T07:37:24.086Z,15.77
2019-05-11T07:38:31.279Z,15.66
2019-05-11T07:39:39.614Z,15.52
2019-05-11T07:40:47.953Z,15.69
2019-05-11T07:41:58.381Z,15.93
2019-05-11T07:43:09.556Z,16.02
2019-05-11T07:44:16.062Z,16.10
2019-05-11T07:45:24.968Z,16.08
2019-05-11T07:46:34.362Z,15.93
2019-05-11T07:47:43.004Z,15.92
2019-05-11T07:48:51.273Z,16.13
2019-05-11T07:49:59.887Z,16.35
2019-05-11T07:51:08.927Z,16.37
2019-05-11T07:52:18.294Z,16.49
2019-05-11T07:53:27.948Z,16.61
2019-05-11T07:54:38.497Z,16.71
2019-05-11T07:55:48.483Z,16.86
2019-05-11T07:56:58.433Z,16.99
2019-05-11T07:58:08.040Z,17.13
2019-05-11T07:59:18.382Z,17.16
2019-05-11T08:00:28.039Z,17.20
2019-05-11T08:01:38.679Z,17.12
2019-05-11T08:02:47.975Z,16.84
2019-05-11T08:03:58.514Z,16.85
2019-05-11T08:05:08.664Z,16.87
2019-05-11T08:06:18.260Z,16.97
2019-05-11T08:07:28.551Z,17.03
2019-05-11T08:08:38.453Z,17.10
2019-05-11T08:09:48.335Z,17.16
2019-05-11T08:10:58.642Z,17.24
2019-05-11T08:12:08.969Z,17.23
2019-05-11T08:13:17.899Z,17.33
2019-05-11T08:14:28.585Z,17.28
2019-05-11T08:15:38.265Z,17.29
2019-05-11T08:16:48.030Z,17.33
2019-05-11T08:17:57.800Z,17.34
2019-05-11T08:19:08.125Z,17.36
2019-05-11T08:20:18.583Z,17.36
2019-05-11T08:21:28.357Z,17.25
2019-05-11T08:22:37.747Z,17.21
2019-05-11T08:23:48.111Z,17.18
2019-05-11T08:24:55.914Z,17.20
2019-05-11T08:26:04.123Z,17.24
2019-05-11T08:27:12.425Z,17.36
2019-05-11T08:28:20.597Z,17.42
2019-05-11T08:29:28.945Z,17.40
2019-05-11T08:30:38.145Z,17.46
2019-05-11T08:31:48.688Z,17.57
2019-05-11T08:32:58.269Z,17.52
2019-05-11T08:34:08.922Z,17.54
2019-05-11T08:35:17.892Z,17.58
2019-05-11T08:36:28.556Z,17.57
2019-05-11T08:37:36.078Z,17.47
2019-05-11T08:38:44.892Z,17.53
2019-05-11T08:39:53.157Z,17.56
2019-05-11T08:41:01.542Z,17.46
2019-05-11T08:42:09.695Z,17.46
2019-05-11T08:43:18.093Z,17.48
2019-05-11T08:44:28.553Z,17.34
2019-05-11T08:45:39.054Z,17.26
2019-05-11T08:46:47.865Z,17.35
2019-05-11T08:47:57.943Z,17.28
2019-05-11T08:49:08.448Z,17.22
2019-05-11T08:50:18.702Z,17.23
2019-05-11T08:51:28.010Z,17.18
2019-05-11T08:52:38.696Z,17.27
2019-05-11T08:53:48.022Z,17.33
2019-05-11T08:54:57.760Z,17.39
2019-05-11T08:56:06.104Z,17.39
2019-05-11T08:57:14.612Z,17.41
2019-05-11T08:58:23.062Z,17.43
2019-05-11T08:59:31.420Z,17.50
2019-05-11T09:00:39.780Z,17.62
2019-05-11T09:01:48.520Z,17.51
2019-05-11T09:02:58.296Z,17.69
2019-05-11T09:04:08.919Z,17.91
2019-05-11T09:05:18.747Z,18.10
2019-05-11T09:06:28.400Z,18.35
2019-05-11T09:07:38.426Z,18.36
2019-05-11T09:08:49.239Z,18.34
2019-05-11T09:09:58.625Z,18.34
2019-05-11T09:11:08.432Z,18.10
2019-05-11T09:12:18.327Z,18.05
2019-05-11T09:13:27.910Z,18.06
2019-05-11T09:14:38.544Z,18.08
2019-05-11T09:15:48.381Z,18.11
2019-05-11T09:16:57.776Z,18.13
2019-05-11T09:18:08.268Z,18.15
2019-05-11T09:19:17.649Z,18.22
2019-05-11T09:20:25.435Z,18.26
2019-05-11T09:21:33.421Z,18.41
2019-05-11T09:22:42.435Z,18.65
2019-05-11T09:23:51.894Z,18.88
2019-05-11T09:25:00.680Z,18.99
2019-05-11T09:26:08.976Z,18.95
2019-05-11T09:27:18.364Z,18.92
2019-05-11T09:28:29.319Z,18.90
2019-05-11T09:29:38.733Z,18.74
2019-05-11T09:30:48.330Z,18.77
2019-05-11T09:31:58.255Z,18.77
2019-05-11T09:33:08.566Z,18.79
2019-05-11T09:34:18.087Z,18.79
2019-05-11T09:35:29.028Z,18.83
2019-05-11T09:36:38.944Z,18.80
2019-05-11T09:37:54.008Z,18.85
2019-05-11T09:39:02.320Z,18.91
2019-05-11T09:40:10.567Z,18.99
2019-05-11T09:41:29.948Z,19.13
2019-05-11T09:42:41.083Z,19.50
2019-05-11T09:43:53.981Z,19.53
2019-05-11T09:45:08.302Z,19.26
2019-05-11T09:46:19.100Z,19.06
2019-05-11T09:47:34.931Z,18.71
2019-05-11T09:48:45.253Z,18.76
2019-05-11T09:50:17.953Z,18.82
2019-05-11T09:51:24.852Z,19.08
2019-05-11T09:52:32.875Z,19.64
2019-05-11T09:53:42.189Z,20.13
2019-05-11T09:54:50.186Z,20.61
2019-05-11T09:55:58.852Z,21.20
2019-05-11T09:57:08.334Z,21.50
2019-05-11T09:58:19.740Z,21.17
2019-05-11T09:59:29.829Z,20.96
2019-05-11T10:00:48.320Z,20.73
2019-05-11T10:01:58.738Z,20.56
2019-05-11T10:03:08.283Z,20.43
2019-05-11T10:04:18.055Z,20.48
2019-05-11T10:05:28.426Z,20.84
2019-05-11T10:06:36.068Z,21.90
2019-05-11T10:07:44.528Z,22.62
2019-05-11T10:08:52.591Z,23.42
2019-05-11T10:10:01.167Z,24.08
2019-05-11T10:11:09.144Z,24.57
2019-05-11T10:12:18.214Z,25.13
2019-05-11T10:13:27.883Z,25.66
2019-05-11T10:14:37.994Z,26.13
2019-05-11T10:16:01.006Z,26.65
2019-05-11T10:16:58.445Z,26.76
2019-05-11T10:18:08.180Z,26.99
2019-05-11T10:19:17.911Z,27.22
2019-05-11T10:20:28.474Z,27.68
2019-05-11T10:21:38.367Z,28.11
2019-05-11T10:22:45.904Z,28.64
2019-05-11T10:23:54.159Z,28.76
2019-05-11T10:25:02.229Z,29.00
2019-05-11T10:26:10.572Z,29.45
2019-05-11T10:27:19.018Z,29.35
2019-05-11T10:28:28.482Z,29.64
2019-05-11T10:29:38.272Z,29.86
2019-05-11T10:30:48.547Z,30.11
2019-05-11T10:31:58.477Z,30.67
2019-05-11T10:33:08.244Z,31.17
2019-05-11T10:34:17.912Z,31.96
2019-05-11T10:35:28.221Z,31.76
2019-05-11T10:36:38.516Z,31.40
2019-05-11T10:37:47.789Z,31.72
2019-05-11T10:38:58.664Z,32.10
2019-05-11T10:40:09.588Z,32.31
2019-05-11T10:41:18.333Z,33.13
2019-05-11T10:42:28.514Z,30.02
2019-05-11T10:43:38.022Z,30.61
2019-05-11T10:44:47.876Z,31.35
2019-05-11T10:45:58.632Z,32.20
2019-05-11T10:47:08.184Z,32.70
2019-05-11T10:48:17.753Z,33.85
2019-05-11T10:49:28.648Z,33.89
2019-05-11T10:50:38.041Z,34.52
2019-05-11T10:51:48.464Z,34.09
2019-05-11T10:52:55.730Z,34.75
2019-05-11T10:54:04.209Z,34.71
2019-05-11T10:55:12.626Z,33.01
2019-05-11T10:56:21.241Z,33.49
2019-05-11T10:57:29.519Z,34.73
2019-05-11T10:58:38.936Z,35.14
2019-05-11T10:59:48.830Z,35.33
2019-05-11T11:00:58.236Z,35.25
2019-05-11T11:02:08.035Z,35.25
2019-05-11T11:03:17.867Z,35.18
2019-05-11T11:04:28.592Z,35.55
2019-05-11T11:05:38.451Z,35.35
2019-05-11T11:06:48.488Z,35.16
2019-05-11T11:07:58.909Z,35.59
2019-05-11T11:09:10.043Z,35.12
2019-05-11T11:10:18.659Z,35.48
2019-05-11T11:11:27.827Z,36.11
2019-05-11T11:12:38.549Z,36.10
2019-05-11T11:13:48.059Z,35.96
2019-05-11T11:14:58.562Z,36.62
2019-05-11T11:16:08.211Z,36.47
2019-05-11T11:17:18.923Z,36.83
2019-05-11T11:18:28.231Z,37.30
2019-05-11T11:19:38.088Z,37.47
2019-05-11T11:20:48.676Z,38.48
2019-05-11T11:22:07.836Z,38.03
2019-05-11T11:23:14.042Z,36.90
2019-05-11T11:24:22.400Z,36.41
2019-05-11T11:25:30.572Z,36.00
2019-05-11T11:26:39.638Z,36.09
2019-05-11T11:27:48.742Z,35.94
2019-05-11T11:28:58.075Z,36.48
2019-05-11T11:30:09.430Z,35.93
2019-05-11T11:31:18.603Z,35.07
2019-05-11T11:32:28.314Z,32.66
2019-05-11T11:33:38.243Z,31.69
2019-05-11T11:34:48.356Z,32.68
2019-05-11T11:35:58.007Z,33.25
2019-05-11T11:37:08.233Z,33.54
2019-05-11T11:38:18.077Z,31.47
2019-05-11T11:39:28.254Z,30.64
2019-05-11T11:40:38.721Z,28.90
2019-05-11T11:41:48.590Z,27.72
2019-05-11T11:42:58.106Z,28.57
2019-05-11T11:44:07.915Z,29.69
2019-05-11T11:45:18.267Z,29.99
2019-05-11T11:46:27.757Z,31.18
2019-05-11T11:47:38.374Z,31.10
2019-05-11T11:48:45.974Z,32.30
2019-05-11T11:49:54.342Z,32.56
2019-05-11T11:51:02.378Z,32.66
2019-05-11T11:52:10.763Z,31.98
2019-05-11T11:53:18.982Z,32.80
2019-05-11T11:54:28.776Z,33.15
2019-05-11T11:55:38.854Z,32.58
2019-05-11T11:56:48.494Z,32.29
2019-05-11T11:57:58.849Z,32.06
2019-05-11T11:59:08.562Z,32.19
2019-05-11T12:00:18.279Z,32.69
2019-05-11T12:01:28.090Z,34.23
2019-05-11T12:02:38.579Z,34.11
2019-05-11T12:03:48.488Z,33.55
2019-05-11T12:04:57.695Z,33.38
2019-05-11T12:06:06.000Z,33.85
2019-05-11T12:07:14.048Z,34.95
2019-05-11T12:08:22.519Z,35.73
2019-05-11T12:09:31.361Z,35.41
2019-05-11T12:10:40.309Z,34.19
2019-05-11T12:11:48.763Z,34.81
2019-05-11T12:12:58.141Z,35.49
2019-05-11T12:14:08.764Z,35.55
2019-05-11T12:15:19.638Z,35.89
2019-05-11T12:16:28.189Z,36.26
2019-05-11T12:17:38.383Z,36.96
2019-05-11T12:18:48.406Z,36.42
2019-05-11T12:19:58.418Z,35.88
2019-05-11T12:21:07.968Z,36.20
2019-05-11T12:22:18.694Z,36.39
2019-05-11T12:23:28.341Z,36.59
2019-05-11T12:24:37.548Z,37.21
2019-05-11T12:25:48.451Z,37.59
2019-05-11T12:26:58.530Z,37.66
2019-05-11T12:28:08.038Z,35.78
2019-05-11T12:29:18.738Z,36.14
2019-05-11T12:30:28.509Z,36.63
2019-05-11T12:31:37.928Z,35.99
2019-05-11T12:32:48.709Z,35.50
2019-05-11T12:33:58.603Z,35.47
2019-05-11T12:35:09.044Z,35.92
2019-05-11T12:36:18.825Z,36.60
2019-05-11T12:37:28.336Z,37.75
2019-05-11T12:38:38.215Z,35.20
2019-05-11T12:39:47.877Z,32.28
2019-05-11T12:40:57.945Z,33.65
2019-05-11T12:42:08.500Z,34.34
2019-05-11T12:43:18.634Z,34.35
2019-05-11T12:44:28.159Z,33.90
2019-05-11T12:45:37.628Z,34.13
2019-05-11T12:46:48.619Z,34.40
2019-05-11T12:47:58.697Z,35.14
2019-05-11T12:49:07.814Z,36.05
2019-05-11T12:50:18.666Z,36.06
2019-05-11T12:51:27.658Z,36.42
2019-05-11T12:52:38.121Z,36.35
2019-05-11T12:53:47.623Z,36.85
2019-05-11T12:54:58.357Z,36.37
2019-05-11T12:56:08.267Z,36.12
2019-05-11T12:57:18.707Z,36.40
2019-05-11T12:58:28.069Z,35.51
2019-05-11T12:59:38.112Z,35.58
2019-05-11T13:00:48.013Z,35.45
2019-05-11T13:01:58.828Z,35.78
2019-05-11T13:03:08.074Z,36.45
2019-05-11T13:04:18.172Z,36.50
2019-05-11T13:05:28.540Z,37.02
2019-05-11T13:06:38.749Z,37.10
2019-05-11T13:07:48.087Z,36.96
2019-05-11T13:08:58.738Z,36.89
2019-05-11T13:10:08.687Z,37.69
2019-05-11T13:11:18.722Z,37.97
2019-05-11T13:12:27.940Z,37.88
2019-05-11T13:13:37.767Z,37.86
2019-05-11T13:14:46.010Z,36.11
2019-05-11T13:15:54.963Z,33.62
2019-05-11T13:17:02.741Z,32.68
2019-05-11T13:18:11.493Z,33.07
2019-05-11T13:19:19.791Z,31.13
2019-05-11T13:20:28.798Z,29.68
2019-05-11T13:21:38.273Z,28.89
2019-05-11T13:22:48.837Z,29.06
2019-05-11T13:23:57.706Z,30.97
2019-05-11T13:25:08.677Z,32.00
2019-05-11T13:26:18.003Z,30.69
2019-05-11T13:27:28.360Z,30.83
2019-05-11T13:28:37.782Z,29.45
2019-05-11T13:29:48.541Z,28.65
2019-05-11T13:30:58.029Z,27.45
2019-05-11T13:32:07.873Z,28.70
2019-05-11T13:33:16.092Z,28.15
2019-05-11T13:34:24.660Z,29.06
2019-05-11T13:35:32.793Z,29.57
2019-05-11T13:36:40.976Z,30.69
2019-05-11T13:37:49.395Z,31.83
2019-05-11T13:38:58.730Z,30.71
2019-05-11T13:40:09.562Z,29.31
2019-05-11T13:41:18.746Z,30.83
2019-05-11T13:42:27.743Z,31.99
2019-05-11T13:43:38.492Z,33.95
2019-05-11T13:44:47.816Z,33.02
2019-05-11T13:45:58.412Z,32.64
2019-05-11T13:47:08.442Z,32.76
2019-05-11T13:48:17.692Z,32.09
2019-05-11T13:49:28.323Z,30.94
2019-05-11T13:50:38.459Z,31.92
2019-05-11T13:51:48.049Z,32.59
2019-05-11T13:52:58.225Z,32.42
2019-05-11T13:54:07.937Z,33.06
2019-05-11T13:55:18.168Z,33.52
2019-05-11T13:56:28.118Z,33.20
2019-05-11T13:57:38.036Z,33.41
2019-05-11T13:58:48.850Z,33.27
2019-05-11T13:59:57.945Z,32.35
2019-05-11T14:01:08.116Z,32.44
2019-05-11T14:02:18.045Z,32.97
2019-05-11T14:03:27.700Z,33.09
2019-05-11T14:04:38.525Z,33.07
2019-05-11T14:05:48.298Z,33.03
2019-05-11T14:06:58.573Z,33.16
2019-05-11T14:08:08.123Z,33.33
2019-05-11T14:09:18.468Z,33.28
2019-05-11T14:10:28.292Z,33.41
2019-05-11T14:11:39.011Z,32.97
2019-05-11T14:12:47.676Z,32.26
2019-05-11T14:13:58.513Z,31.94
2019-05-11T14:15:10.577Z,31.81
2019-05-11T14:16:19.163Z,31.79
2019-05-11T14:17:31.216Z,31.55
2019-05-11T14:18:38.658Z,31.36
2019-05-11T14:19:49.177Z,31.48
2019-05-11T14:20:58.607Z,30.89
2019-05-11T14:22:08.681Z,30.92
2019-05-11T14:23:18.296Z,31.17
2019-05-11T14:24:28.801Z,31.14
2019-05-11T14:25:38.121Z,31.22
2019-05-11T14:26:48.817Z,29.90
2019-05-11T14:27:59.372Z,30.38
2019-05-11T14:29:08.468Z,30.55
2019-05-11T14:30:19.163Z,30.43
2019-05-11T14:31:28.370Z,30.45
2019-05-11T14:32:38.888Z,30.29
2019-05-11T14:33:48.688Z,30.18
2019-05-11T14:34:57.794Z,30.27
2019-05-11T14:36:08.375Z,30.27
2019-05-11T14:37:18.106Z,30.42
2019-05-11T14:38:25.908Z,29.80
2019-05-11T14:39:34.305Z,30.28
2019-05-11T14:40:42.467Z,30.13
2019-05-11T14:41:52.237Z,29.90
2019-05-11T14:43:00.745Z,29.76
2019-05-11T14:44:09.234Z,29.45
2019-05-11T14:45:18.689Z,29.11
2019-05-11T14:46:27.941Z,28.97
2019-05-11T14:47:38.395Z,29.09
2019-05-11T14:48:48.165Z,28.54
2019-05-11T14:49:57.857Z,28.68